createdAt,value
2019-03-23T00:01:42.434Z,99685.48
2019-03-23T00:03:46.808Z,99686.52
2019-03-23T00:05:52.306Z,99688.27
2019-03-23T00:07:56.686Z,99690.03
2019-03-23T00:10:01.036Z,99685.02
2019-03-23T00:12:05.578Z,99687.30
2019-03-23T00:14:09.917Z,99678.75
2019-03-23T00:16:15.371Z,99688.77
2019-03-23T00:18:19.837Z,99682.50
2019-03-23T00:20:24.112Z,99684.23
2019-03-23T00:22:28.420Z,99684.02
2019-03-23T00:24:32.788Z,99684.23
2019-03-23T00:26:37.084Z,99683.91
2019-03-23T00:28:41.471Z,99680.90
2019-03-23T00:30:45.769Z,99680.28
2019-03-23T00:32:50.223Z,99668.98
2019-03-23T00:34:54.535Z,99682.22
2019-03-23T00:36:58.864Z,99676.35
2019-03-23T00:39:04.684Z,99672.80
2019-03-23T00:41:09.093Z,99665.68
2019-03-23T00:43:13.421Z,99664.03
2019-03-23T00:45:17.740Z,99666.12
2019-03-23T00:47:22.167Z,99664.31
2019-03-23T00:49:27.490Z,99662.73
2019-03-23T00:51:31.811Z,99667.49
2019-03-23T00:53:37.170Z,99667.37
2019-03-23T00:55:41.526Z,99669.22
2019-03-23T00:57:45.933Z,99667.47
2019-03-23T00:59:52.264Z,99665.78
2019-03-23T01:01:56.655Z,99669.29
2019-03-23T01:04:01.076Z,99667.58
2019-03-23T01:06:05.546Z,99665.87
2019-03-23T01:08:10.002Z,99668.41
2019-03-23T01:10:14.628Z,99667.47
2019-03-23T01:12:19.021Z,99672.36
2019-03-23T01:14:24.389Z,99671.06
2019-03-23T01:16:28.714Z,99673.36
2019-03-23T01:18:35.184Z,99674.03
2019-03-23T01:20:49.284Z,99667.86
2019-03-23T01:22:46.612Z,99668.13
2019-03-23T01:24:51.029Z,99665.24
2019-03-23T01:26:55.444Z,99661.80
2019-03-23T01:28:59.932Z,99659.61
2019-03-23T01:31:06.493Z,99661.41
2019-03-23T01:33:10.873Z,99655.45
2019-03-23T01:35:15.292Z,99663.58
2019-03-23T01:37:20.691Z,99659.22
2019-03-23T01:39:26.013Z,99661.30
2019-03-23T01:41:30.399Z,99659.48
2019-03-23T01:43:35.775Z,99659.38
2019-03-23T01:45:44.462Z,99661.33
2019-03-23T01:47:49.808Z,99660.13
2019-03-23T01:49:54.237Z,99656.81
2019-03-23T01:51:58.714Z,99658.55
2019-03-23T01:54:03.101Z,99659.02
2019-03-23T01:56:07.478Z,99665.34
2019-03-23T01:58:11.856Z,99659.08
2019-03-23T02:00:16.387Z,99658.27
2019-03-23T02:02:20.803Z,99660.01
2019-03-23T02:04:25.145Z,99660.86
2019-03-23T02:06:29.493Z,99661.97
2019-03-23T02:08:33.817Z,99656.73
2019-03-23T02:10:38.194Z,99658.50
2019-03-23T02:12:43.543Z,99653.47
2019-03-23T02:14:47.859Z,99652.30
2019-03-23T02:16:52.174Z,99656.30
2019-03-23T02:18:56.515Z,99654.44
2019-03-23T02:21:01.659Z,99660.95
2019-03-23T02:23:06.093Z,99667.34
2019-03-23T02:25:10.716Z,99671.02
2019-03-23T02:27:16.078Z,99670.17
2019-03-23T02:29:20.437Z,99665.95
2019-03-23T02:31:27.958Z,99662.14
2019-03-23T02:33:32.301Z,99659.52
2019-03-23T02:35:36.815Z,99661.76
2019-03-23T02:37:42.109Z,99656.42
2019-03-23T02:39:47.230Z,99657.11
2019-03-23T02:41:52.704Z,99657.18
2019-03-23T02:43:57.082Z,99656.72
2019-03-23T02:46:01.576Z,99650.23
2019-03-23T02:48:06.093Z,99652.53
2019-03-23T02:50:10.982Z,99654.55
2019-03-23T02:52:15.350Z,99656.08
2019-03-23T02:54:19.700Z,99653.95
2019-03-23T02:56:24.080Z,99651.63
2019-03-23T02:58:29.437Z,99644.94
2019-03-23T03:01:27.492Z,99645.95
2019-03-23T03:03:31.928Z,99637.54
2019-03-23T03:05:37.316Z,99645.31
2019-03-23T03:07:43.512Z,99641.33
2019-03-23T03:09:47.791Z,99646.08
2019-03-23T03:11:53.168Z,99643.78
2019-03-23T03:13:57.505Z,99645.95
2019-03-23T03:16:01.927Z,99644.70
2019-03-23T03:18:08.023Z,99645.61
2019-03-23T03:20:12.595Z,99640.51
2019-03-23T03:22:16.856Z,99639.16
2019-03-23T03:24:21.259Z,99637.81
2019-03-23T03:26:25.635Z,99644.39
2019-03-23T03:28:32.001Z,99641.69
2019-03-23T03:30:36.333Z,99644.05
2019-03-23T03:32:41.836Z,99640.71
2019-03-23T03:34:47.245Z,99646.31
2019-03-23T03:36:51.645Z,99646.69
2019-03-23T03:38:56.056Z,99643.51
2019-03-23T03:41:00.344Z,99653.33
2019-03-23T03:43:10.706Z,99640.59
2019-03-23T03:45:22.235Z,99641.80
2019-03-23T03:47:26.648Z,99643.73
2019-03-23T03:49:31.087Z,99642.23
2019-03-23T03:51:35.630Z,99641.90
2019-03-23T03:53:41.033Z,99635.87
2019-03-23T03:55:45.533Z,99632.96
2019-03-23T03:57:50.095Z,99626.27
2019-03-23T03:59:54.462Z,99620.59
2019-03-23T04:01:58.897Z,99629.76
2019-03-23T04:04:03.291Z,99628.43
2019-03-23T04:06:07.655Z,99625.00
2019-03-23T04:08:12.318Z,99628.63
2019-03-23T04:10:16.805Z,99624.81
2019-03-23T04:12:21.216Z,99625.06
2019-03-23T04:14:26.606Z,99622.23
2019-03-23T04:16:31.947Z,99622.79
2019-03-23T04:18:37.260Z,99621.44
2019-03-23T04:20:41.662Z,99622.84
2019-03-23T04:22:45.936Z,99624.55
2019-03-23T04:24:51.332Z,99627.41
2019-03-23T04:26:55.684Z,99627.26
2019-03-23T04:29:00.007Z,99627.77
2019-03-23T04:31:04.461Z,99638.73
2019-03-23T04:33:08.899Z,99638.59
2019-03-23T04:35:14.413Z,99634.91
2019-03-23T04:37:19.824Z,99641.69
2019-03-23T04:39:24.259Z,99640.05
2019-03-23T04:41:29.647Z,99638.70
2019-03-23T04:43:33.968Z,99645.64
2019-03-23T04:45:39.299Z,99649.87
2019-03-23T04:47:43.689Z,99651.53
2019-03-23T04:49:49.322Z,99649.34
2019-03-23T04:51:54.870Z,99655.42
2019-03-23T04:54:06.248Z,99657.42
2019-03-23T04:56:10.768Z,99655.73
2019-03-23T04:58:15.187Z,99657.96
2019-03-23T05:00:20.125Z,99660.86
2019-03-23T05:02:24.431Z,99657.51
2019-03-23T05:04:30.704Z,99655.82
2019-03-23T05:06:36.133Z,99653.13
2019-03-23T05:08:41.482Z,99660.70
2019-03-23T05:10:47.044Z,99664.91
2019-03-23T05:12:58.224Z,99667.45
2019-03-23T05:15:05.181Z,99665.10
2019-03-23T05:17:10.579Z,99666.80
2019-03-23T05:19:15.866Z,99670.03
2019-03-23T05:21:20.321Z,99676.11
2019-03-23T05:23:24.585Z,99679.13
2019-03-23T05:25:30.433Z,99678.46
2019-03-23T05:27:34.788Z,99681.47
2019-03-23T05:29:39.111Z,99677.23
2019-03-23T05:31:43.439Z,99676.22
2019-03-23T05:33:48.939Z,99677.88
2019-03-23T05:35:54.383Z,99684.16
2019-03-23T05:37:58.796Z,99688.05
2019-03-23T05:40:03.127Z,99689.89
2019-03-23T05:42:07.517Z,99689.70
2019-03-23T05:44:14.993Z,99693.91
2019-03-23T05:46:20.397Z,99692.51
2019-03-23T05:48:24.956Z,99694.16
2019-03-23T05:50:29.311Z,99693.45
2019-03-23T05:52:33.618Z,99690.03
2019-03-23T05:54:37.972Z,99695.70
2019-03-23T05:56:43.259Z,99693.61
2019-03-23T05:58:47.673Z,99690.52
2019-03-23T06:00:54.037Z,99692.25
2019-03-23T06:03:00.416Z,99689.98
2019-03-23T06:05:06.309Z,99691.78
2019-03-23T06:07:10.682Z,99699.21
2019-03-23T06:09:15.002Z,99696.80
2019-03-23T06:11:20.343Z,99700.09
2019-03-23T06:13:24.667Z,99698.33
2019-03-23T06:15:29.996Z,99696.91
2019-03-23T06:17:34.362Z,99698.33
2019-03-23T06:19:38.737Z,99703.59
2019-03-23T06:21:44.146Z,99705.64
2019-03-23T06:23:48.549Z,99699.58
2019-03-23T06:25:57.173Z,99699.28
2019-03-23T06:28:01.492Z,99698.42
2019-03-23T06:30:07.595Z,99698.45
2019-03-23T06:32:12.975Z,99687.73
2019-03-23T06:34:17.338Z,99677.62
2019-03-23T06:36:22.687Z,99669.97
2019-03-23T06:38:27.037Z,99674.42
2019-03-23T06:40:31.404Z,99673.02
2019-03-23T06:42:35.791Z,99671.13
2019-03-23T06:44:40.113Z,99676.70
2019-03-23T06:46:46.551Z,99675.62
2019-03-23T06:48:50.930Z,99669.07
2019-03-23T06:50:55.270Z,99674.40
2019-03-23T06:52:59.631Z,99666.53
2019-03-23T06:55:04.632Z,99660.42
2019-03-23T06:57:09.077Z,99661.89
2019-03-23T06:59:13.485Z,99656.13
2019-03-23T07:01:17.832Z,99663.30
2019-03-23T07:03:24.269Z,99658.66
2019-03-23T07:05:28.671Z,99656.52
2019-03-23T07:07:33.028Z,99658.70
2019-03-23T07:09:39.416Z,99652.40
2019-03-23T07:11:43.805Z,99649.73
2019-03-23T07:13:48.148Z,99656.77
2019-03-23T07:15:54.490Z,99645.23
2019-03-23T07:17:58.839Z,99643.45
2019-03-23T07:20:03.336Z,99649.39
2019-03-23T07:22:07.834Z,99635.76
2019-03-23T07:24:12.188Z,99640.14
2019-03-23T07:26:16.707Z,99633.80
2019-03-23T07:28:21.077Z,99638.58
2019-03-23T07:30:25.492Z,99638.63
2019-03-23T07:32:29.860Z,99645.23
2019-03-23T07:34:34.221Z,99637.07
2019-03-23T07:36:38.569Z,99640.94
2019-03-23T07:38:42.851Z,99639.33
2019-03-23T07:40:47.219Z,99638.87
2019-03-23T07:42:51.600Z,99634.34
2019-03-23T07:44:55.917Z,99636.27
2019-03-23T07:47:00.297Z,99635.75
2019-03-23T07:49:04.823Z,99633.53
2019-03-23T07:51:09.312Z,99642.20
2019-03-23T07:53:13.804Z,99635.13
2019-03-23T07:55:18.121Z,99637.73
2019-03-23T07:57:22.411Z,99639.28
2019-03-23T07:59:26.719Z,99637.09
2019-03-23T08:01:31.086Z,99645.33
2019-03-23T08:03:35.539Z,99638.05
2019-03-23T08:05:40.929Z,99640.20
2019-03-23T08:07:46.410Z,99641.03
2019-03-23T08:09:50.785Z,99637.70
2019-03-23T08:11:56.121Z,99641.55
2019-03-23T08:14:00.431Z,99644.03
2019-03-23T08:16:05.845Z,99638.08
2019-03-23T08:18:10.170Z,99638.86
2019-03-23T08:20:19.566Z,99645.69
2019-03-23T08:22:23.914Z,99638.42
2019-03-23T08:24:28.293Z,99642.61
2019-03-23T08:26:32.654Z,99644.09
2019-03-23T08:28:37.027Z,99644.98
2019-03-23T08:30:41.425Z,99641.38
2019-03-23T08:32:45.773Z,99637.49
2019-03-23T08:34:53.187Z,99645.95
2019-03-23T08:36:58.562Z,99642.63
2019-03-23T08:39:06.035Z,99638.86
2019-03-23T08:41:11.341Z,99639.38
2019-03-23T08:43:15.745Z,99641.05
2019-03-23T08:45:20.239Z,99642.20
2019-03-23T08:47:24.598Z,99644.02
2019-03-23T08:49:30.964Z,99639.11
2019-03-23T08:51:36.364Z,99641.13
2019-03-23T08:53:42.716Z,99647.20
2019-03-23T08:55:48.030Z,99643.16
2019-03-23T08:57:52.370Z,99653.59
2019-03-23T08:59:59.802Z,99649.84
2019-03-23T09:02:04.206Z,99657.50
2019-03-23T09:04:08.557Z,99649.89
2019-03-23T09:06:12.932Z,99644.04
2019-03-23T09:08:18.593Z,99645.72
2019-03-23T09:10:23.038Z,99642.53
2019-03-23T09:12:33.359Z,99641.70
2019-03-23T09:14:39.776Z,99640.31
2019-03-23T09:16:48.262Z,99639.02
2019-03-23T09:18:52.648Z,99636.41
2019-03-23T09:20:58.024Z,99641.00
2019-03-23T09:23:02.357Z,99640.88
2019-03-23T09:25:10.434Z,99635.13
2019-03-23T09:27:15.024Z,99635.84
2019-03-23T09:29:19.334Z,99644.08
2019-03-23T09:31:23.744Z,99637.32
2019-03-23T09:33:28.232Z,99643.74
2019-03-23T09:35:34.633Z,99639.40
2019-03-23T09:37:40.197Z,99638.86
2019-03-23T09:39:45.686Z,99632.92
2019-03-23T09:41:52.242Z,99638.66
2019-03-23T09:43:56.737Z,99631.55
2019-03-23T09:46:08.905Z,99631.64
2019-03-23T09:48:14.436Z,99632.34
2019-03-23T09:50:20.822Z,99636.08
2019-03-23T09:52:27.196Z,99635.16
2019-03-23T09:54:31.556Z,99640.22
2019-03-23T09:56:40.006Z,99640.91
2019-03-23T09:58:44.537Z,99636.70
2019-03-23T10:00:49.043Z,99630.67
2019-03-23T10:02:54.552Z,99628.43
2019-03-23T10:04:59.141Z,99630.73
2019-03-23T10:07:04.610Z,99627.76
2019-03-23T10:09:09.042Z,99631.61
2019-03-23T10:11:13.891Z,99632.38
2019-03-23T10:13:21.393Z,99632.45
2019-03-23T10:15:27.081Z,99634.39
2019-03-23T10:17:31.413Z,99632.25
2019-03-23T10:19:35.725Z,99631.88
2019-03-23T10:21:41.044Z,99630.44
2019-03-23T10:23:45.397Z,99628.80
2019-03-23T10:25:49.776Z,99626.42
2019-03-23T10:27:55.154Z,99625.38
2019-03-23T10:29:59.592Z,99623.28
2019-03-23T10:32:04.963Z,99626.56
2019-03-23T10:34:09.293Z,99621.89
2019-03-23T10:36:13.664Z,99620.72
2019-03-23T10:38:18.066Z,99621.28
2019-03-23T10:40:31.858Z,99618.72
2019-03-23T10:42:28.577Z,99616.72
2019-03-23T10:44:32.917Z,99609.19
2019-03-23T10:46:37.215Z,99612.15
2019-03-23T10:48:41.608Z,99610.74
2019-03-23T10:50:45.962Z,99607.59
2019-03-23T10:52:50.343Z,99606.41
2019-03-23T10:54:55.723Z,99603.01
2019-03-23T10:57:01.152Z,99600.34
2019-03-23T10:59:05.562Z,99602.06
2019-03-23T11:01:09.883Z,99603.72
2019-03-23T11:03:14.307Z,99605.52
2019-03-23T11:05:19.659Z,99600.47
2019-03-23T11:07:24.019Z,99605.08
2019-03-23T11:09:29.500Z,99600.98
2019-03-23T11:11:33.835Z,99598.92
2019-03-23T11:13:39.154Z,99598.77
2019-03-23T11:15:44.568Z,99596.09
2019-03-23T11:17:51.096Z,99587.09
2019-03-23T11:19:55.559Z,99590.17
2019-03-23T11:21:59.879Z,99598.99
2019-03-23T11:24:04.282Z,99590.28
2019-03-23T11:26:08.677Z,99591.94
2019-03-23T11:28:12.949Z,99591.69
2019-03-23T11:30:17.345Z,99588.95
2019-03-23T11:32:21.709Z,99585.21
2019-03-23T11:34:26.119Z,99584.83
2019-03-23T11:36:30.507Z,99583.92
2019-03-23T11:38:34.894Z,99583.80
2019-03-23T11:40:39.998Z,99586.14
2019-03-23T11:42:49.810Z,99585.66
2019-03-23T11:44:50.639Z,99596.70
2019-03-23T11:46:54.935Z,99586.41
2019-03-23T11:48:59.268Z,99580.95
2019-03-23T11:51:04.688Z,99576.87
2019-03-23T11:53:09.112Z,99581.25
2019-03-23T11:55:13.598Z,99579.19
2019-03-23T11:57:18.178Z,99575.95
2019-03-23T11:59:22.500Z,99581.81
2019-03-23T12:01:26.835Z,99580.74
2019-03-23T12:03:31.272Z,99575.47
2019-03-23T12:05:35.625Z,99570.22
2019-03-23T12:07:40.003Z,99570.39
2019-03-23T12:09:44.358Z,99567.08
2019-03-23T12:11:49.705Z,99571.63
2019-03-23T12:13:54.007Z,99570.69
2019-03-23T12:15:59.475Z,99570.45
2019-03-23T12:18:05.888Z,99566.80
2019-03-23T12:20:10.630Z,99566.75
2019-03-23T12:22:17.073Z,99559.14
2019-03-23T12:24:21.509Z,99555.56
2019-03-23T12:26:25.938Z,99554.13
2019-03-23T12:28:30.279Z,99556.55
2019-03-23T12:30:34.649Z,99560.45
2019-03-23T12:32:38.999Z,99555.36
2019-03-23T12:34:44.366Z,99554.23
2019-03-23T12:36:48.656Z,99556.77
2019-03-23T12:38:52.969Z,99540.41
2019-03-23T12:40:57.322Z,99543.17
2019-03-23T12:43:01.706Z,99543.02
2019-03-23T12:45:07.407Z,99537.33
2019-03-23T12:47:11.818Z,99539.01
2019-03-23T12:49:16.201Z,99532.78
2019-03-23T12:51:20.545Z,99532.81
2019-03-23T12:53:24.925Z,99529.94
2019-03-23T12:55:29.386Z,99525.05
2019-03-23T12:57:33.744Z,99523.31
2019-03-23T12:59:38.043Z,99519.36
2019-03-23T13:01:48.292Z,99519.54
2019-03-23T13:03:52.701Z,99513.70
2019-03-23T13:05:57.045Z,99515.86
2019-03-23T13:08:01.340Z,99513.48
2019-03-23T13:10:07.139Z,99510.89
2019-03-23T13:12:11.537Z,99510.24
2019-03-23T13:14:15.840Z,99507.73
2019-03-23T13:16:20.205Z,99510.95
2019-03-23T13:18:27.295Z,99514.92
2019-03-23T13:20:30.856Z,99509.73
2019-03-23T13:22:41.212Z,99504.20
2019-03-23T13:24:45.595Z,99500.31
2019-03-23T13:26:49.923Z,99499.16
2019-03-23T13:28:54.227Z,99498.82
2019-03-23T13:30:58.556Z,99493.74
2019-03-23T13:33:02.854Z,99491.00
2019-03-23T13:35:07.261Z,99485.45
2019-03-23T13:37:11.592Z,99481.92
2019-03-23T13:39:15.935Z,99482.69
2019-03-23T13:41:20.399Z,99481.53
2019-03-23T13:43:24.769Z,99479.61
2019-03-23T13:45:29.241Z,99478.03
2019-03-23T13:47:33.593Z,99473.81
2019-03-23T13:49:37.894Z,99476.73
2019-03-23T13:51:42.225Z,99463.05
2019-03-23T13:53:46.534Z,99462.21
2019-03-23T13:55:50.845Z,99465.81
2019-03-23T13:57:55.252Z,99460.78
2019-03-23T13:59:59.590Z,99455.89
2019-03-23T14:02:04.071Z,99464.17
2019-03-23T14:04:08.501Z,99456.23
2019-03-23T14:06:13.834Z,99451.80
2019-03-23T14:08:18.348Z,99451.32
2019-03-23T14:10:23.695Z,99451.14
2019-03-23T14:12:28.016Z,99441.84
2019-03-23T14:14:32.311Z,99441.32
2019-03-23T14:16:36.675Z,99438.41
2019-03-23T14:18:41.072Z,99437.14
2019-03-23T14:20:45.374Z,99443.61
2019-03-23T14:22:50.763Z,99436.86
2019-03-23T14:24:55.115Z,99434.79
2019-03-23T14:26:59.517Z,99437.97
2019-03-23T14:29:03.929Z,99427.48
2019-03-23T14:31:08.292Z,99428.57
2019-03-23T14:33:12.612Z,99426.38
2019-03-23T14:35:17.944Z,99426.75
2019-03-23T14:37:22.273Z,99427.19
2019-03-23T14:39:26.651Z,99431.39
2019-03-23T14:41:30.980Z,99426.38
2019-03-23T14:43:35.352Z,99424.69
2019-03-23T14:45:40.805Z,99423.98
2019-03-23T14:47:45.189Z,99424.31
2019-03-23T14:49:49.568Z,99422.00
2019-03-23T14:51:53.949Z,99427.27
2019-03-23T14:53:59.314Z,99423.02
2019-03-23T14:56:03.688Z,99423.18
2019-03-23T14:58:08.062Z,99427.92
2019-03-23T15:00:12.546Z,99422.75
2019-03-23T15:02:16.899Z,99425.05
2019-03-23T15:04:22.245Z,99425.82
2019-03-23T15:06:26.590Z,99428.86
2019-03-23T15:08:31.910Z,99426.56
2019-03-23T15:10:36.369Z,99430.74
2019-03-23T15:12:40.735Z,99427.05
2019-03-23T15:14:45.044Z,99422.60
2019-03-23T15:16:49.514Z,99421.85
2019-03-23T15:18:53.908Z,99422.39
2019-03-23T15:20:58.319Z,99418.62
2019-03-23T15:23:02.709Z,99418.62
2019-03-23T15:25:07.472Z,99420.34
2019-03-23T15:27:11.870Z,99418.84
2019-03-23T15:29:16.173Z,99422.58
2019-03-23T15:31:20.557Z,99420.38
2019-03-23T15:33:25.981Z,99415.97
2019-03-23T15:35:30.371Z,99410.53
2019-03-23T15:37:34.850Z,99418.16
2019-03-23T15:39:39.177Z,99418.65
2019-03-23T15:41:43.517Z,99417.22
2019-03-23T15:43:47.947Z,99418.69
2019-03-23T15:45:52.310Z,99415.30
2019-03-23T15:47:57.716Z,99411.63
2019-03-23T15:50:02.066Z,99417.41
2019-03-23T15:52:06.469Z,99421.59
2019-03-23T15:54:10.905Z,99417.53
2019-03-23T15:56:16.247Z,99416.11
2019-03-23T15:58:20.577Z,99420.45
2019-03-23T16:00:25.972Z,99418.09
2019-03-23T16:02:30.327Z,99413.59
2019-03-23T16:04:34.655Z,99413.13
2019-03-23T16:06:38.999Z,99420.34
2019-03-23T16:08:43.380Z,99416.27
2019-03-23T16:10:47.724Z,99427.34
2019-03-23T16:12:52.110Z,99427.91
2019-03-23T16:14:57.461Z,99424.19
2019-03-23T16:17:01.760Z,99421.32
2019-03-23T16:19:06.156Z,99420.17
2019-03-23T16:21:10.574Z,99427.31
2019-03-23T16:23:15.939Z,99429.77
2019-03-23T16:25:21.275Z,99424.92
2019-03-23T16:27:25.595Z,99425.83
2019-03-23T16:29:30.003Z,99425.83
2019-03-23T16:31:34.349Z,99430.17
2019-03-23T16:33:38.805Z,99431.72
2019-03-23T16:35:43.154Z,99428.36
2019-03-23T16:37:49.568Z,99425.84
2019-03-23T16:39:53.933Z,99430.13
2019-03-23T16:41:59.362Z,99429.39
2019-03-23T16:44:03.685Z,99427.81
2019-03-23T16:46:08.030Z,99425.08
2019-03-23T16:48:12.403Z,99429.11
2019-03-23T16:50:18.775Z,99428.11
2019-03-23T16:52:23.170Z,99432.09
2019-03-23T16:54:27.498Z,99428.58
2019-03-23T16:56:31.810Z,99431.27
2019-03-23T16:58:36.173Z,99434.88
2019-03-23T17:00:40.604Z,99427.56
2019-03-23T17:02:44.972Z,99431.59
2019-03-23T17:04:51.385Z,99424.75
2019-03-23T17:06:56.892Z,99428.56
2019-03-23T17:09:02.230Z,99426.62
2019-03-23T17:11:06.613Z,99423.45
2019-03-23T17:13:12.170Z,99430.75
2019-03-23T17:15:16.619Z,99428.64
2019-03-23T17:17:21.027Z,99427.41
2019-03-23T17:19:25.352Z,99434.76
2019-03-23T17:21:29.776Z,99426.83
2019-03-23T17:23:34.201Z,99434.13
2019-03-23T17:25:38.655Z,99428.97
2019-03-23T17:27:43.121Z,99429.41
2019-03-23T17:29:47.481Z,99434.80
2019-03-23T17:31:51.816Z,99427.77
2019-03-23T17:33:56.195Z,99431.23
2019-03-23T17:36:00.594Z,99436.86
2019-03-23T17:38:05.055Z,99438.03
2019-03-23T17:40:09.938Z,99443.67
2019-03-23T17:42:14.305Z,99442.59
2019-03-23T17:44:18.654Z,99433.27
2019-03-23T17:46:23.041Z,99441.33
2019-03-23T17:48:27.382Z,99446.50
2019-03-23T17:50:32.316Z,99440.55
2019-03-23T17:52:36.713Z,99458.87
2019-03-23T17:54:41.078Z,99461.44
2019-03-23T17:56:45.456Z,99460.66
2019-03-23T17:58:49.820Z,99466.19
2019-03-23T18:00:54.205Z,99466.22
2019-03-23T18:02:58.533Z,99468.41
2019-03-23T18:05:02.915Z,99469.00
2019-03-23T18:07:07.308Z,99470.38
2019-03-23T18:09:11.688Z,99469.00
2019-03-23T18:11:16.108Z,99468.42
2019-03-23T18:13:20.582Z,99470.09
2019-03-23T18:15:24.907Z,99467.62
2019-03-23T18:17:29.202Z,99470.63
2019-03-23T18:19:33.543Z,99479.44
2019-03-23T18:21:38.039Z,99479.40
2019-03-23T18:23:42.552Z,99475.00
2019-03-23T18:25:48.403Z,99482.97
2019-03-23T18:27:52.827Z,99484.08
2019-03-23T18:29:57.165Z,99486.53
2019-03-23T18:32:01.486Z,99485.67
2019-03-23T18:34:05.864Z,99488.67
2019-03-23T18:36:10.292Z,99494.12
2019-03-23T18:38:14.816Z,99494.59
2019-03-23T18:40:19.338Z,99498.27
2019-03-23T18:42:23.665Z,99495.93
2019-03-23T18:44:27.970Z,99497.98
2019-03-23T18:46:32.373Z,99500.95
2019-03-23T18:48:36.797Z,99507.17
2019-03-23T18:50:42.739Z,99499.94
2019-03-23T18:52:48.361Z,99498.80
2019-03-23T18:54:52.731Z,99500.88
2019-03-23T18:56:58.159Z,99505.57
2019-03-23T18:59:03.679Z,99500.59
2019-03-23T19:01:08.214Z,99495.95
2019-03-23T19:03:12.731Z,99498.84
2019-03-23T19:05:17.089Z,99499.22
2019-03-23T19:07:21.391Z,99497.36
2019-03-23T19:09:26.814Z,99505.30
2019-03-23T19:11:32.197Z,99505.30
2019-03-23T19:13:38.081Z,99509.11
2019-03-23T19:15:42.640Z,99507.66
2019-03-23T19:17:48.373Z,99512.47
2019-03-23T19:19:52.751Z,99510.83
2019-03-23T19:21:57.116Z,99516.34
2019-03-23T19:24:01.445Z,99512.20
2019-03-23T19:26:06.844Z,99509.33
2019-03-23T19:28:11.287Z,99515.30
2019-03-23T19:30:15.916Z,99508.97
2019-03-23T19:32:20.227Z,99512.25
2019-03-23T19:34:24.555Z,99512.80
2019-03-23T19:36:28.858Z,99513.47
2019-03-23T19:38:34.209Z,99523.44
2019-03-23T19:40:38.579Z,99538.25
2019-03-23T19:42:42.960Z,99548.96
2019-03-23T19:44:48.287Z,99549.16
2019-03-23T19:46:52.756Z,99550.22
2019-03-23T19:48:57.102Z,99542.94
2019-03-23T19:51:03.710Z,99551.59
2019-03-23T19:53:07.486Z,99558.19
2019-03-23T19:55:11.935Z,99555.59
2019-03-23T19:57:16.355Z,99561.42
2019-03-23T19:59:20.728Z,99558.87
2019-03-23T20:01:25.119Z,99565.69
2019-03-23T20:03:29.460Z,99569.00
2019-03-23T20:05:33.782Z,99575.97
2019-03-23T20:07:40.223Z,99579.66
2019-03-23T20:09:45.568Z,99579.09
2019-03-23T20:11:50.926Z,99583.95
2019-03-23T20:13:59.047Z,99588.83
2019-03-23T20:16:01.400Z,99583.81
2019-03-23T20:18:06.079Z,99581.88
2019-03-23T20:20:11.187Z,99588.78
2019-03-23T20:22:15.653Z,99589.83
2019-03-23T20:24:20.044Z,99589.53
2019-03-23T20:26:24.433Z,99581.22
2019-03-23T20:28:28.778Z,99586.33
2019-03-23T20:30:34.175Z,99586.77
2019-03-23T20:32:38.574Z,99580.89
2019-03-23T20:34:42.883Z,99580.31
2019-03-23T20:36:47.255Z,99589.85
2019-03-23T20:38:51.625Z,99581.89
2019-03-23T20:40:56.026Z,99585.12
2019-03-23T20:43:00.383Z,99583.70
2019-03-23T20:45:05.357Z,99586.39
2019-03-23T20:47:09.979Z,99588.29
2019-03-23T20:49:16.219Z,99593.19
2019-03-23T20:51:20.792Z,99587.35
2019-03-23T20:53:31.018Z,99592.15
2019-03-23T20:55:36.377Z,99591.73
2019-03-23T20:57:40.705Z,99586.05
2019-03-23T20:59:46.033Z,99589.25
2019-03-23T21:01:50.495Z,99588.89
2019-03-23T21:03:54.949Z,99590.66
2019-03-23T21:05:59.286Z,99590.33
2019-03-23T21:08:03.734Z,99593.59
2019-03-23T21:10:08.207Z,99597.64
2019-03-23T21:12:12.643Z,99599.85
2019-03-23T21:14:20.465Z,99600.33
2019-03-23T21:16:24.128Z,99606.33
2019-03-23T21:18:28.492Z,99600.33
2019-03-23T21:20:32.960Z,99599.23
2019-03-23T21:22:37.309Z,99605.27
2019-03-23T21:24:41.624Z,99598.95
2019-03-23T21:26:46.061Z,99599.80
2019-03-23T21:28:51.637Z,99600.27
2019-03-23T21:30:57.146Z,99596.64
2019-03-23T21:33:01.607Z,99594.12
2019-03-23T21:35:06.407Z,99597.64
2019-03-23T21:37:10.835Z,99593.27
2019-03-23T21:39:15.218Z,99588.80
2019-03-23T21:41:19.622Z,99599.16
2019-03-23T21:43:24.941Z,99593.04
2019-03-23T21:45:29.349Z,99592.36
2019-03-23T21:47:33.839Z,99590.41
2019-03-23T21:49:38.200Z,99595.30
2019-03-23T21:51:42.566Z,99601.77
2019-03-23T21:53:47.023Z,99597.61
2019-03-23T21:55:52.451Z,99592.63
2019-03-23T21:57:57.975Z,99595.31
2019-03-23T22:00:02.348Z,99597.98
2019-03-23T22:02:06.665Z,99598.15
2019-03-23T22:04:11.129Z,99595.61
2019-03-23T22:06:15.516Z,99595.77
2019-03-23T22:08:19.900Z,99598.16
2019-03-23T22:10:25.304Z,99593.16
2019-03-23T22:12:29.745Z,99598.88
2019-03-23T22:14:41.530Z,99600.40
2019-03-23T22:16:41.312Z,99597.33
2019-03-23T22:18:45.720Z,99600.22
2019-03-23T22:20:50.124Z,99598.97
2019-03-23T22:22:54.578Z,99600.98
2019-03-23T22:24:58.924Z,99605.77
2019-03-23T22:27:03.358Z,99603.45
2019-03-23T22:29:07.734Z,99614.39
2019-03-23T22:31:12.082Z,99614.47
2019-03-23T22:33:16.464Z,99609.34
2019-03-23T22:35:20.882Z,99608.53
2019-03-23T22:37:26.285Z,99603.06
2019-03-23T22:39:30.625Z,99607.91
2019-03-23T22:41:34.986Z,99606.72
2019-03-23T22:43:39.307Z,99600.66
2019-03-23T22:45:43.654Z,99602.80
2019-03-23T22:47:48.080Z,99602.84
2019-03-23T22:49:52.440Z,99599.77
2019-03-23T22:51:56.760Z,99603.20
2019-03-23T22:54:02.146Z,99595.25
2019-03-23T22:56:06.586Z,99591.19
2019-03-23T22:58:10.935Z,99599.23
2019-03-23T23:00:18.282Z,99597.17
2019-03-23T23:02:23.692Z,99593.94
2019-03-23T23:04:28.156Z,99595.30
2019-03-23T23:06:32.494Z,99591.89
2019-03-23T23:08:36.871Z,99586.00
2019-03-23T23:10:42.320Z,99595.48
2019-03-23T23:12:46.680Z,99588.73
2019-03-23T23:14:52.648Z,99583.11
2019-03-23T23:16:58.329Z,99575.24
2019-03-23T23:19:02.680Z,99573.56
2019-03-23T23:21:06.994Z,99578.34
2019-03-23T23:23:11.367Z,99580.92
2019-03-23T23:25:15.795Z,99577.45
2019-03-23T23:27:21.159Z,99574.25
2019-03-23T23:29:25.560Z,99576.36
2019-03-23T23:31:29.918Z,99573.03
2019-03-23T23:33:34.226Z,99571.80
2019-03-23T23:35:38.711Z,99564.83
2019-03-23T23:37:44.080Z,99573.92
2019-03-23T23:39:48.375Z,99567.47
2019-03-23T23:41:52.711Z,99567.83
2019-03-23T23:43:58.030Z,99571.91
2019-03-23T23:46:02.364Z,99569.91
2019-03-23T23:48:06.725Z,99581.77
2019-03-23T23:50:12.463Z,99577.35
2019-03-23T23:52:16.829Z,99576.20
2019-03-23T23:54:21.168Z,99580.42
2019-03-23T23:56:25.473Z,99577.70
2019-03-23T23:58:29.762Z,99577.10
